»·PEaware :: SWA257 KSFO-KDEN

SWA257 :: KSFO-KDEN

FLIGHT INFORMATION

Flight Status: Arrived
Operator:
Southwest Airlines
More flights by this operator :: More flights under this callsign
Pilot: Cody B. (17747)
Aircraft: BOEING 737-800
(B738)
More flights by this aircraft type
Origin: KSFO San Francisco Intl
United States
Destination: KDEN Denver Intl
United States
More flights between these airports :: More routes between these airports
Route: +TRUKN2 TIPRE Q126 INSLO DTA J84 EKR KAILE2
File this flight plan on PilotEdge
Remarks:
Altitude:
(Current/Filed)
35,000ft
Speed:
(Current/Filed)
462kts
Departed: 30-Jul-18 03:51 PM
Arrived: 30-Jul-18 05:53 PM
Distance/Time
Traveled:
838nm/2:02
Distance/Time
To Go:
Arrived

Flight Plot

Page will automatically refresh every two minutes.

Flight plan parsing failed; only flown route is shown


Map Options




Map Legend


Flown Route
Filed Route
Departure Airport
Arrival Airport
Navaid (VOR, NDB)
Fix

Horizontal Profiles

Position Reports

Time Latitude Longitude Heading Altitude Ground
Speed
30-Jul-18 15:00 37.612636 -122.384669 6 21ft 0kts
30-Jul-18 15:01 37.612636 -122.384669 6 21ft 0kts
30-Jul-18 15:02 37.612636 -122.384669 6 21ft 0kts
30-Jul-18 15:03 37.612636 -122.384669 6 21ft 0kts
30-Jul-18 15:04 37.612636 -122.384669 6 20ft 0kts
30-Jul-18 15:05 37.612636 -122.384669 6 20ft 0kts
30-Jul-18 15:06 37.612636 -122.384669 6 20ft 0kts
30-Jul-18 15:07 37.612636 -122.384669 6 20ft 0kts
30-Jul-18 15:08 37.612636 -122.384669 6 20ft 0kts
30-Jul-18 15:09 37.612636 -122.384669 6 20ft 0kts
30-Jul-18 15:10 37.612636 -122.384669 6 20ft 0kts
30-Jul-18 15:11 37.612636 -122.384669 6 20ft 0kts
30-Jul-18 15:12 37.612636 -122.384669 6 20ft 0kts
30-Jul-18 15:13 37.612636 -122.384669 6 20ft 0kts
30-Jul-18 15:14 37.612636 -122.384669 6 20ft 0kts
30-Jul-18 15:15 37.612636 -122.384669 6 20ft 0kts
30-Jul-18 15:16 37.612636 -122.384669 6 20ft 0kts
30-Jul-18 15:17 37.612636 -122.384669 6 20ft 0kts
30-Jul-18 15:18 37.612636 -122.384669 6 20ft 0kts
30-Jul-18 15:19 37.612636 -122.384669 6 20ft 0kts
30-Jul-18 15:20 37.612636 -122.384669 6 20ft 0kts
30-Jul-18 15:21 37.612636 -122.384669 6 20ft 0kts
30-Jul-18 15:22 37.612636 -122.384669 6 20ft 0kts
30-Jul-18 15:23 37.612636 -122.384669 6 20ft 0kts
30-Jul-18 15:24 37.612636 -122.384669 6 20ft 0kts
30-Jul-18 15:25 37.612636 -122.384669 6 20ft 0kts
30-Jul-18 15:26 37.612636 -122.384669 6 20ft 0kts
30-Jul-18 15:27 37.612636 -122.384669 6 20ft 0kts
30-Jul-18 15:28 37.612636 -122.384669 6 20ft 0kts
30-Jul-18 15:29 37.612636 -122.384669 6 20ft 0kts
30-Jul-18 15:30 37.612636 -122.384669 6 20ft 0kts
30-Jul-18 15:31 37.612636 -122.384669 6 20ft 0kts
30-Jul-18 15:32 37.612636 -122.384669 6 21ft 0kts
30-Jul-18 15:33 37.612636 -122.384669 6 21ft 0kts
30-Jul-18 15:34 37.612636 -122.384669 6 21ft 0kts
30-Jul-18 15:35 37.612636 -122.384669 6 21ft 0kts
30-Jul-18 15:36 37.612636 -122.384669 6 21ft 0kts
30-Jul-18 15:37 37.612396 -122.384702 6 21ft 2kts
30-Jul-18 15:38 37.611808 -122.384837 24 21ft 2kts
30-Jul-18 15:39 37.611373 -122.385341 61 21ft 2kts
30-Jul-18 15:40 37.611264 -122.386072 98 21ft 2kts
30-Jul-18 15:41 37.611385 -122.386512 119 21ft 0kts
30-Jul-18 15:42 37.611385 -122.386512 119 21ft 0kts
30-Jul-18 15:43 37.611385 -122.386512 119 21ft 0kts
30-Jul-18 15:44 37.611073 -122.385719 118 20ft 7kts
30-Jul-18 15:45 37.610658 -122.384743 118 20ft 0kts
30-Jul-18 15:46 37.610655 -122.384736 118 20ft 0kts
30-Jul-18 15:47 37.610377 -122.384216 140 20ft 6kts
30-Jul-18 15:48 37.608680 -122.384340 122 21ft 5kts
30-Jul-18 15:49 37.608435 -122.383772 117 20ft 0kts
30-Jul-18 15:50 37.608385 -122.383650 117 20ft 2kts
30-Jul-18 15:51 37.608179 -122.382796 44 21ft 2kts
30-Jul-18 15:52 37.616149 -122.377479 27 21ft 112kts
30-Jul-18 15:53 37.654507 -122.347860 41 1350ft 192kts
30-Jul-18 15:54 37.684461 -122.279856 62 2678ft 262kts
30-Jul-18 15:55 37.724950 -122.198734 54 4080ft 287kts
30-Jul-18 15:56 37.767596 -122.116814 55 6816ft 286kts
30-Jul-18 15:57 37.812138 -122.030910 56 9092ft 298kts
30-Jul-18 15:58 37.852488 -121.939608 63 11350ft 304kts
30-Jul-18 15:59 37.884359 -121.859223 64 13101ft 312kts
30-Jul-18 16:00 37.930299 -121.742944 65 15512ft 324kts
30-Jul-18 16:01 37.963962 -121.657360 65 17152ft 332kts
30-Jul-18 16:02 38.005682 -121.551071 65 18967ft 342kts
30-Jul-18 16:03 38.048387 -121.441959 65 20612ft 353kts
30-Jul-18 16:04 38.098307 -121.313841 66 22211ft 369kts
30-Jul-18 16:05 38.135566 -121.217814 66 22714ft 396kts
30-Jul-18 16:06 38.184223 -121.092186 66 24101ft 405kts
30-Jul-18 16:07 38.218002 -120.956558 84 25394ft 408kts
30-Jul-18 16:08 38.233806 -120.815035 85 26541ft 410kts
30-Jul-18 16:09 38.249942 -120.672065 85 27123ft 422kts
30-Jul-18 16:10 38.266796 -120.524846 85 28109ft 429kts
30-Jul-18 16:11 38.284001 -120.375332 84 29401ft 427kts
30-Jul-18 16:12 38.300850 -120.230472 84 30650ft 427kts
30-Jul-18 16:13 38.318096 -120.084480 84 32322ft 411kts
30-Jul-18 16:14 38.335098 -119.940934 84 33378ft 410kts
30-Jul-18 16:15 38.352310 -119.797927 84 34289ft 411kts
30-Jul-18 16:16 38.369726 -119.654493 84 35057ft 412kts
30-Jul-18 16:17 38.387468 -119.509256 83 35312ft 421kts
30-Jul-18 16:18 38.406012 -119.359559 83 35321ft 435kts
30-Jul-18 16:19 38.425034 -119.207921 83 35309ft 446kts
30-Jul-18 16:20 38.445006 -119.049973 83 35312ft 457kts
30-Jul-18 16:21 38.465690 -118.887850 83 35315ft 469kts
30-Jul-18 16:22 38.487007 -118.722585 82 35313ft 479kts
30-Jul-18 16:23 38.508896 -118.554466 82 35313ft 482kts
30-Jul-18 16:24 38.531068 -118.386143 82 35313ft 482kts
30-Jul-18 16:25 38.552636 -118.224239 82 35305ft 482kts
30-Jul-18 16:26 38.575316 -118.055567 82 35083ft 481kts
30-Jul-18 16:27 38.598090 -117.887711 82 35202ft 483kts
30-Jul-18 16:28 38.621234 -117.718728 81 35203ft 483kts
30-Jul-18 16:29 38.644609 -117.549700 81 35203ft 483kts
30-Jul-18 16:30 38.668216 -117.380584 80 35205ft 484kts
30-Jul-18 16:31 38.691787 -117.214233 81 35202ft 483kts
30-Jul-18 16:32 38.711109 -117.044820 83 35201ft 483kts
30-Jul-18 16:33 38.730134 -116.875059 82 35203ft 483kts
30-Jul-18 16:34 38.749409 -116.705175 82 35204ft 482kts
30-Jul-18 16:35 38.768946 -116.535276 81 35222ft 486kts
30-Jul-18 16:36 38.788853 -116.364236 81 35242ft 485kts
30-Jul-18 16:37 38.808631 -116.196563 81 35237ft 485kts
30-Jul-18 16:38 38.828991 -116.025879 81 35237ft 485kts
30-Jul-18 16:39 38.849611 -115.855055 81 35239ft 486kts
30-Jul-18 16:40 38.870481 -115.683946 80 35239ft 485kts
30-Jul-18 16:41 38.891553 -115.513431 80 35279ft 485kts
30-Jul-18 16:42 38.912652 -115.344629 80 35279ft 485kts
30-Jul-18 16:43 38.936351 -115.176461 77 35278ft 484kts
30-Jul-18 16:44 38.963532 -115.008407 77 35274ft 485kts
30-Jul-18 16:45 38.990840 -114.839893 77 35276ft 485kts
30-Jul-18 16:46 39.018323 -114.670261 77 35277ft 483kts
30-Jul-18 16:47 39.045553 -114.501549 77 35272ft 483kts
30-Jul-18 16:48 39.072762 -114.333222 77 35274ft 483kts
30-Jul-18 16:49 39.100107 -114.165254 77 35274ft 484kts
30-Jul-18 16:50 39.127189 -113.998553 77 35279ft 484kts
30-Jul-18 16:51 39.129227 -113.829072 112 35288ft 480kts
30-Jul-18 16:52 39.119696 -113.661075 67 35207ft 485kts
30-Jul-18 16:53 39.160461 -113.497442 80 35156ft 487kts
30-Jul-18 16:54 39.183251 -113.327247 78 35123ft 485kts
30-Jul-18 16:55 39.207628 -113.157010 78 35132ft 488kts
30-Jul-18 16:56 39.232375 -112.985172 77 35144ft 488kts
30-Jul-18 16:57 39.257315 -112.814451 77 35146ft 486kts
30-Jul-18 16:58 39.282554 -112.643117 76 35136ft 485kts
30-Jul-18 16:59 39.308571 -112.472801 73 35151ft 485kts
30-Jul-18 17:00 39.336036 -112.304412 76 35146ft 486kts
30-Jul-18 17:01 39.361524 -112.133574 75 35148ft 485kts
30-Jul-18 17:02 39.387206 -111.963508 75 35147ft 486kts
30-Jul-18 17:03 39.413256 -111.792573 75 35148ft 486kts
30-Jul-18 17:04 39.440493 -111.621366 74 35155ft 485kts
30-Jul-18 17:05 39.467580 -111.450973 74 35231ft 485kts
30-Jul-18 17:06 39.494572 -111.281994 74 35228ft 485kts
30-Jul-18 17:07 39.521674 -111.111343 74 35227ft 484kts
30-Jul-18 17:08 39.546891 -110.940769 74 35234ft 484kts
30-Jul-18 17:09 39.574199 -110.770552 73 35230ft 483kts
30-Jul-18 17:10 39.601695 -110.601293 73 35231ft 480kts
30-Jul-18 17:11 39.629495 -110.431788 73 35236ft 480kts
30-Jul-18 17:12 39.657112 -110.264427 73 35223ft 480kts
30-Jul-18 17:13 39.685380 -110.095288 72 35233ft 479kts
30-Jul-18 17:14 39.713501 -109.927811 72 35232ft 479kts
30-Jul-18 17:15 39.742113 -109.759044 72 35231ft 479kts
30-Jul-18 17:16 39.770819 -109.591304 72 35235ft 473kts
30-Jul-18 17:17 39.799567 -109.424385 72 35232ft 474kts
30-Jul-18 17:18 39.828314 -109.259007 72 35223ft 474kts
30-Jul-18 17:19 39.857569 -109.091892 72 35224ft 474kts
30-Jul-18 17:20 39.886920 -108.925526 71 35227ft 474kts
30-Jul-18 17:21 39.916569 -108.758887 71 35229ft 473kts
30-Jul-18 17:22 39.946527 -108.591571 70 35224ft 474kts
30-Jul-18 17:23 39.976677 -108.424632 70 35227ft 474kts
30-Jul-18 17:24 40.006064 -108.262984 71 35320ft 474kts
30-Jul-18 17:25 40.036653 -108.095921 70 35322ft 474kts
30-Jul-18 17:26 40.067469 -107.928805 70 35321ft 474kts
30-Jul-18 17:27 40.100692 -107.763770 68 35325ft 473kts
30-Jul-18 17:28 40.134035 -107.598510 68 35337ft 474kts
30-Jul-18 17:29 40.167344 -107.432247 68 35329ft 473kts
30-Jul-18 17:30 40.200087 -107.267661 68 35360ft 474kts
30-Jul-18 17:31 40.232133 -107.104570 67 34610ft 444kts
30-Jul-18 17:32 40.262074 -106.951584 67 33648ft 448kts
30-Jul-18 17:33 40.294192 -106.787289 68 32353ft 474kts
30-Jul-18 17:34 40.325636 -106.623400 68 30667ft 454kts
30-Jul-18 17:35 40.355666 -106.466251 70 28987ft 438kts
30-Jul-18 17:36 40.384711 -106.313415 70 27315ft 430kts
30-Jul-18 17:37 40.412770 -106.164346 70 25523ft 420kts
30-Jul-18 17:38 40.439874 -106.016487 77 22649ft 400kts
30-Jul-18 17:39 40.427589 -105.875371 99 20654ft 398kts
30-Jul-18 17:40 40.405642 -105.738335 99 18229ft 390kts
30-Jul-18 17:41 40.383970 -105.603149 99 17088ft 374kts
30-Jul-18 17:42 40.362569 -105.470272 99 17010ft 376kts
30-Jul-18 17:43 40.343995 -105.343054 97 17004ft 340kts
30-Jul-18 17:44 40.327282 -105.221043 97 16478ft 348kts
30-Jul-18 17:45 40.310365 -105.098671 97 14832ft 340kts
30-Jul-18 17:46 40.288030 -104.980728 124 13326ft 334kts
30-Jul-18 17:47 40.231508 -104.886344 127 11769ft 329kts
30-Jul-18 17:48 40.176517 -104.795816 127 10226ft 323kts
30-Jul-18 17:49 40.117031 -104.718151 146 8825ft 280kts
30-Jul-18 17:50 40.053193 -104.685329 177 7693ft 248kts
30-Jul-18 17:51 39.990081 -104.685641 179 7431ft 206kts
30-Jul-18 17:52 39.938658 -104.686539 176 6266ft 169kts
30-Jul-18 17:53 39.893083 -104.686875 170 5443ft 164kts
30-Jul-18 17:54 39.876263 -104.686873 180 5442ft 35kts
30-Jul-18 17:55 39.871650 -104.685134 152 5442ft 0kts
30-Jul-18 17:56 39.871067 -104.684842 173 5442ft 7kts
30-Jul-18 17:57 39.867106 -104.684869 179 5442ft 18kts
30-Jul-18 17:58 39.864854 -104.684909 180 5442ft 7kts
30-Jul-18 17:59 39.864246 -104.682471 91 5442ft 9kts
30-Jul-18 18:00 39.864782 -104.679867 90 5442ft 2kts
30-Jul-18 18:01 39.864769 -104.678137 89 5442ft 11kts
30-Jul-18 18:02 39.864201 -104.676085 194 5442ft 7kts
30-Jul-18 18:03 39.863595 -104.676121 179 5442ft 0kts
30-Jul-18 18:04 39.863595 -104.676121 179 5442ft 0kts
30-Jul-18 18:05 39.863595 -104.676121 179 5442ft 0kts
30-Jul-18 18:06 39.863595 -104.676121 179 5442ft 0kts
30-Jul-18 18:07 39.863595 -104.676121 179 5442ft 0kts

Navigation Log

Ident Type
Flight plan parsing failed, navigation log unavailable